createdAt,value
2022-12-11T00:01:36.599Z,34.00
2022-12-11T00:04:03.073Z,31.67
2022-12-11T00:06:29.417Z,31.07
2022-12-11T00:08:55.767Z,30.37
2022-12-11T00:11:22.680Z,27.57
2022-12-11T00:13:48.962Z,30.30
2022-12-11T00:16:15.599Z,26.63
2022-12-11T00:18:42.565Z,23.80
2022-12-11T00:21:14.695Z,25.93
2022-12-11T00:23:41.840Z,26.10
2022-12-11T00:26:11.894Z,30.90
2022-12-11T00:28:38.304Z,30.58
2022-12-11T00:31:09.559Z,27.30
2022-12-11T00:33:35.889Z,27.60
2022-12-11T00:36:02.331Z,28.40
2022-12-11T00:38:28.648Z,28.50
2022-12-11T00:40:58.870Z,29.10
2022-12-11T00:43:25.130Z,25.45
2022-12-11T00:45:51.494Z,24.03
2022-12-11T00:48:17.840Z,25.10
2022-12-11T00:50:44.133Z,25.30
2022-12-11T00:53:10.607Z,24.60
2022-12-11T00:55:38.935Z,27.73
2022-12-11T00:58:05.677Z,21.27
2022-12-11T01:00:32.425Z,18.80
2022-12-11T01:02:58.921Z,23.87
2022-12-11T01:05:25.467Z,23.40
2022-12-11T01:07:51.860Z,21.73
2022-12-11T01:10:18.484Z,23.23
2022-12-11T01:12:44.854Z,21.53
2022-12-11T01:15:11.732Z,26.07
2022-12-11T01:17:38.450Z,20.70
2022-12-11T01:20:05.782Z,25.50
2022-12-11T01:22:32.120Z,23.90
2022-12-11T01:24:58.403Z,18.87
2022-12-11T01:27:24.889Z,19.60
2022-12-11T01:29:51.312Z,19.43
2022-12-11T01:32:17.617Z,19.40
2022-12-11T01:34:43.976Z,22.00
2022-12-11T01:37:10.395Z,23.23
2022-12-11T01:39:37.098Z,19.40
2022-12-11T01:42:03.577Z,23.00
2022-12-11T01:44:29.854Z,19.50
2022-12-11T01:46:56.218Z,20.47
2022-12-11T01:49:26.671Z,23.83
2022-12-11T01:52:10.497Z,23.15
2022-12-11T01:54:37.109Z,21.57
2022-12-11T01:57:06.518Z,22.63
2022-12-11T01:59:36.391Z,23.57
2022-12-11T02:02:07.559Z,17.33
2022-12-11T02:04:37.626Z,21.37
2022-12-11T02:07:04.282Z,18.88
2022-12-11T02:09:37.155Z,21.20
2022-12-11T02:12:12.383Z,21.17
2022-12-11T02:15:00.359Z,23.63
2022-12-11T02:17:42.142Z,21.57
2022-12-11T02:20:31.103Z,19.07
2022-12-11T02:23:24.882Z,19.57
2022-12-11T02:26:15.822Z,23.47
2022-12-11T02:28:48.246Z,24.80
2022-12-11T02:31:20.566Z,27.60
2022-12-11T02:33:54.938Z,25.70
2022-12-11T02:36:25.252Z,23.97
2022-12-11T02:38:54.581Z,28.45
2022-12-11T02:41:23.048Z,24.37
2022-12-11T02:43:50.910Z,32.03
2022-12-11T02:46:20.586Z,26.13
2022-12-11T02:48:50.539Z,30.27
2022-12-11T02:51:33.922Z,28.20
2022-12-11T02:54:01.039Z,28.60
2022-12-11T02:56:36.895Z,28.20
2022-12-11T02:59:08.470Z,29.13
2022-12-11T03:01:35.093Z,31.27
2022-12-11T03:04:03.941Z,26.37
2022-12-11T03:06:37.648Z,30.60
2022-12-11T03:09:05.585Z,26.13
2022-12-11T03:11:32.007Z,23.87
2022-12-11T03:14:00.093Z,25.20
2022-12-11T03:16:35.234Z,22.40
2022-12-11T03:19:20.570Z,23.17
2022-12-11T03:21:55.102Z,27.90
2022-12-11T03:24:29.617Z,24.73
2022-12-11T03:27:01.422Z,27.77
2022-12-11T03:29:35.920Z,26.17
2022-12-11T03:32:10.603Z,24.00
2022-12-11T03:34:36.878Z,30.37
2022-12-11T03:37:07.278Z,25.30
2022-12-11T03:39:38.749Z,28.40
2022-12-11T03:42:09.217Z,26.43
2022-12-11T03:44:36.767Z,27.48
2022-12-11T03:47:06.743Z,29.50
2022-12-11T03:49:40.057Z,27.25
2022-12-11T03:52:09.404Z,27.77
2022-12-11T03:54:36.531Z,23.00
2022-12-11T03:57:05.130Z,26.73
2022-12-11T03:59:31.453Z,27.23
2022-12-11T04:01:58.025Z,24.83
2022-12-11T04:04:24.536Z,24.03
2022-12-11T04:06:51.983Z,29.57
2022-12-11T04:09:18.444Z,29.13
2022-12-11T04:11:44.775Z,31.00
2022-12-11T04:14:14.016Z,30.23
2022-12-11T04:16:40.403Z,30.43
2022-12-11T04:19:06.711Z,35.60
2022-12-11T04:21:39.119Z,30.57
2022-12-11T04:24:06.314Z,33.97
2022-12-11T04:26:32.633Z,32.07
2022-12-11T04:28:58.930Z,31.40
2022-12-11T04:31:25.285Z,29.27
2022-12-11T04:33:51.673Z,30.63
2022-12-11T04:36:18.004Z,30.67
2022-12-11T04:38:44.320Z,32.47
2022-12-11T04:41:13.588Z,33.40
2022-12-11T04:43:40.392Z,31.47
2022-12-11T04:46:13.338Z,31.73
2022-12-11T04:48:41.220Z,28.73
2022-12-11T04:51:08.022Z,30.30
2022-12-11T04:53:34.940Z,30.70
2022-12-11T04:56:01.588Z,30.27
2022-12-11T04:58:28.317Z,30.87
2022-12-11T05:00:54.725Z,34.47
2022-12-11T05:03:21.139Z,33.60
2022-12-11T05:05:51.825Z,26.63
2022-12-11T05:08:20.376Z,28.50
2022-12-11T05:11:04.098Z,22.67
2022-12-11T05:13:30.511Z,25.63
2022-12-11T05:15:57.509Z,24.80
2022-12-11T05:18:24.303Z,21.33
2022-12-11T05:21:05.682Z,22.70
2022-12-11T05:23:32.529Z,22.67
2022-12-11T05:26:02.143Z,26.17
2022-12-11T05:28:31.941Z,25.13
2022-12-11T05:31:00.686Z,23.90
2022-12-11T05:33:28.145Z,23.07
2022-12-11T05:35:54.938Z,21.07
2022-12-11T05:38:21.378Z,24.80
2022-12-11T05:40:57.806Z,20.60
2022-12-11T05:43:24.751Z,20.70
2022-12-11T05:45:51.050Z,27.07
2022-12-11T05:48:17.414Z,23.80
2022-12-11T05:50:43.758Z,24.47
2022-12-11T05:53:10.095Z,20.43
2022-12-11T05:55:36.539Z,22.20
2022-12-11T05:58:02.954Z,23.73
2022-12-11T06:00:32.969Z,24.37
2022-12-11T06:03:02.342Z,26.27
2022-12-11T06:05:28.748Z,23.03
2022-12-11T06:07:55.127Z,23.43
2022-12-11T06:10:21.478Z,26.73
2022-12-11T06:12:47.784Z,26.53
2022-12-11T06:15:14.136Z,24.63
2022-12-11T06:17:40.418Z,24.97
2022-12-11T06:20:06.987Z,27.63
2022-12-11T06:22:33.276Z,28.93
2022-12-11T06:24:59.702Z,28.70
2022-12-11T06:27:25.990Z,24.87
2022-12-11T06:29:52.327Z,24.87
2022-12-11T06:32:18.733Z,28.33
2022-12-11T06:34:45.076Z,24.77
2022-12-11T06:37:11.423Z,24.40
2022-12-11T06:39:37.732Z,27.43
2022-12-11T06:42:04.169Z,25.03
2022-12-11T06:44:30.509Z,27.77
2022-12-11T06:46:59.273Z,26.07
2022-12-11T06:49:25.643Z,25.23
2022-12-11T06:51:51.962Z,24.10
2022-12-11T06:54:18.277Z,30.37
2022-12-11T06:56:44.617Z,27.53
2022-12-11T06:59:12.120Z,28.90
2022-12-11T07:01:38.435Z,28.13
2022-12-11T07:04:04.790Z,25.73
2022-12-11T07:06:31.171Z,25.53
2022-12-11T07:08:57.497Z,23.90
2022-12-11T07:11:24.365Z,26.80
2022-12-11T07:13:50.841Z,27.67
2022-12-11T07:16:18.407Z,27.47
2022-12-11T07:18:48.432Z,29.10
2022-12-11T07:21:15.119Z,27.88
2022-12-11T07:23:42.015Z,29.03
2022-12-11T07:26:11.219Z,31.97
2022-12-11T07:28:37.606Z,28.70
2022-12-11T07:31:09.338Z,28.67
2022-12-11T07:33:36.132Z,32.27
2022-12-11T07:36:04.694Z,31.37
2022-12-11T07:38:31.296Z,22.10
2022-12-11T07:41:04.817Z,23.80
2022-12-11T07:43:31.733Z,24.40
2022-12-11T07:46:06.763Z,26.73
2022-12-11T07:48:36.135Z,23.87
2022-12-11T07:51:15.252Z,23.20
2022-12-11T07:53:46.872Z,25.53
2022-12-11T07:56:13.452Z,23.73
2022-12-11T07:58:39.832Z,23.60
2022-12-11T08:01:10.388Z,24.13
2022-12-11T08:03:36.709Z,22.35
2022-12-11T08:06:03.180Z,24.87
2022-12-11T08:08:29.630Z,26.13
2022-12-11T08:10:56.075Z,27.37
2022-12-11T08:13:22.373Z,28.87
2022-12-11T08:15:48.711Z,25.63
2022-12-11T08:18:15.068Z,28.50
2022-12-11T08:20:41.368Z,25.83
2022-12-11T08:23:07.697Z,24.90
2022-12-11T08:25:34.143Z,24.17
2022-12-11T08:28:00.466Z,23.00
2022-12-11T08:30:27.095Z,22.57
2022-12-11T08:32:53.544Z,24.73
2022-12-11T08:35:19.932Z,26.80
2022-12-11T08:37:46.308Z,27.80
2022-12-11T08:40:12.848Z,30.90
2022-12-11T08:42:39.175Z,26.67
2022-12-11T08:45:06.203Z,22.53
2022-12-11T08:47:32.567Z,25.93
2022-12-11T08:49:58.930Z,36.53
2022-12-11T08:52:25.255Z,26.33
2022-12-11T08:54:51.531Z,29.47
2022-12-11T08:57:17.935Z,26.83
2022-12-11T08:59:44.309Z,26.97
2022-12-11T09:02:13.796Z,28.83
2022-12-11T09:04:40.146Z,26.73
2022-12-11T09:07:06.535Z,27.93
2022-12-11T09:09:32.812Z,28.20
2022-12-11T09:11:59.171Z,25.03
2022-12-11T09:14:25.571Z,24.70
2022-12-11T09:16:51.904Z,23.30
2022-12-11T09:19:18.230Z,24.07
2022-12-11T09:21:45.078Z,22.70
2022-12-11T09:24:12.710Z,26.77
2022-12-11T09:26:39.224Z,27.67
2022-12-11T09:29:06.554Z,23.20
2022-12-11T09:31:35.530Z,21.90
2022-12-11T09:34:05.370Z,23.73
2022-12-11T09:36:32.324Z,22.93
2022-12-11T09:39:03.837Z,23.90
2022-12-11T09:42:18.123Z,27.13
2022-12-11T09:45:01.790Z,25.73
2022-12-11T09:47:43.663Z,24.13
2022-12-11T09:50:10.090Z,25.17
2022-12-11T09:52:46.654Z,28.60
2022-12-11T09:55:17.361Z,25.03
2022-12-11T09:57:55.762Z,28.70
2022-12-11T10:00:39.876Z,23.90
2022-12-11T10:03:44.094Z,25.10
2022-12-11T10:06:15.444Z,28.20
2022-12-11T10:08:58.933Z,28.43
2022-12-11T10:11:39.001Z,25.67
2022-12-11T10:14:17.925Z,26.73
2022-12-11T10:16:59.563Z,29.83
2022-12-11T10:19:29.932Z,29.07
2022-12-11T10:21:57.201Z,29.45
2022-12-11T10:25:07.669Z,26.80
2022-12-11T10:27:23.963Z,27.77
2022-12-11T10:30:01.068Z,25.80
2022-12-11T10:32:50.472Z,29.13
2022-12-11T10:35:35.361Z,30.20
2022-12-11T10:38:14.870Z,30.23
2022-12-11T10:40:45.608Z,27.97
2022-12-11T10:43:12.476Z,27.98
2022-12-11T10:45:38.955Z,29.60
2022-12-11T10:48:09.749Z,28.30
2022-12-11T10:50:36.413Z,24.05
2022-12-11T10:53:02.899Z,26.23
2022-12-11T10:55:43.514Z,30.93
2022-12-11T10:58:18.597Z,30.00
2022-12-11T11:00:45.863Z,29.17
2022-12-11T11:03:23.247Z,24.73
2022-12-11T11:05:49.876Z,25.30
2022-12-11T11:08:22.515Z,27.53
2022-12-11T11:10:54.709Z,28.20
2022-12-11T11:13:24.346Z,28.33
2022-12-11T11:16:04.369Z,29.47
2022-12-11T11:18:32.632Z,26.80
2022-12-11T11:20:59.665Z,28.27
2022-12-11T11:23:27.020Z,27.73
2022-12-11T11:25:59.304Z,28.27
2022-12-11T11:28:29.215Z,27.50
2022-12-11T11:30:59.584Z,29.93
2022-12-11T11:33:26.413Z,21.17
2022-12-11T11:36:01.542Z,29.30
2022-12-11T11:38:57.283Z,27.07
2022-12-11T11:41:47.812Z,26.90
2022-12-11T11:44:19.863Z,25.13
2022-12-11T11:46:53.262Z,26.80
2022-12-11T11:49:46.802Z,26.23
2022-12-11T11:52:38.872Z,27.27
2022-12-11T11:55:21.713Z,25.43
2022-12-11T11:58:06.928Z,26.93
2022-12-11T12:00:34.198Z,27.67
2022-12-11T12:03:05.979Z,27.63
2022-12-11T12:05:45.641Z,25.27
2022-12-11T12:08:33.217Z,26.77
2022-12-11T12:11:30.206Z,26.20
2022-12-11T12:17:32.180Z,28.63
2022-12-11T12:20:21.969Z,28.90
2022-12-11T12:23:06.529Z,24.20
2022-12-11T12:25:55.864Z,27.13
2022-12-11T12:28:31.187Z,28.30
2022-12-11T12:31:09.629Z,25.10
2022-12-11T12:33:44.554Z,24.77
2022-12-11T12:36:26.960Z,25.13
2022-12-11T12:39:15.691Z,30.57
2022-12-11T12:41:44.836Z,24.60
2022-12-11T12:44:14.772Z,25.23
2022-12-11T12:47:00.593Z,23.23
2022-12-11T12:49:38.085Z,27.17
2022-12-11T12:52:10.298Z,25.97
2022-12-11T12:54:37.616Z,22.40
2022-12-11T12:57:04.622Z,25.43
2022-12-11T12:59:31.445Z,24.80
2022-12-11T13:02:01.884Z,23.43
2022-12-11T13:04:55.554Z,24.35
2022-12-11T13:07:27.082Z,26.03
2022-12-11T13:12:33.909Z,25.80
2022-12-11T13:15:00.841Z,29.83
2022-12-11T13:17:37.932Z,25.67
2022-12-11T13:20:19.097Z,32.73
2022-12-11T13:22:49.625Z,27.80
2022-12-11T13:25:50.336Z,25.38
2022-12-11T13:28:43.247Z,28.73
2022-12-11T13:31:15.728Z,27.07
2022-12-11T13:33:55.650Z,26.00
2022-12-11T13:36:31.841Z,30.43
2022-12-11T13:39:05.786Z,30.53
2022-12-11T13:41:36.489Z,31.53
2022-12-11T13:44:04.177Z,28.60
2022-12-11T13:46:35.419Z,28.77
2022-12-11T13:49:04.588Z,34.80
2022-12-11T13:51:34.036Z,29.47
2022-12-11T13:54:25.313Z,31.07
2022-12-11T13:56:59.410Z,27.10
2022-12-11T13:59:33.012Z,27.73
2022-12-11T14:02:04.265Z,23.83
2022-12-11T14:04:33.907Z,31.10
2022-12-11T14:07:01.732Z,29.87
2022-12-11T14:09:28.732Z,31.27
2022-12-11T14:11:57.121Z,34.07
2022-12-11T14:14:33.374Z,29.10
2022-12-11T14:17:01.334Z,29.37
2022-12-11T14:19:28.103Z,31.13
2022-12-11T14:21:56.103Z,27.50
2022-12-11T14:24:22.398Z,30.13
2022-12-11T14:26:53.770Z,28.30
2022-12-11T14:29:31.474Z,28.33
2022-12-11T14:32:04.154Z,30.80
2022-12-11T14:34:37.071Z,29.80
2022-12-11T14:37:07.531Z,30.50
2022-12-11T14:39:39.951Z,34.45
2022-12-11T14:42:17.549Z,32.50
2022-12-11T14:45:09.171Z,30.63
2022-12-11T14:47:42.104Z,29.87
2022-12-11T14:50:32.496Z,36.00
2022-12-11T14:53:04.040Z,35.15
2022-12-11T14:55:37.255Z,38.03
2022-12-11T14:58:24.005Z,32.63
2022-12-11T15:01:05.676Z,38.27
2022-12-11T15:03:34.895Z,39.80
2022-12-11T15:06:02.787Z,40.50
2022-12-11T15:08:31.973Z,39.27
2022-12-11T15:11:07.335Z,38.87
2022-12-11T15:13:36.184Z,36.00
2022-12-11T15:16:03.733Z,39.77
2022-12-11T15:18:34.005Z,39.70
2022-12-11T15:21:03.904Z,36.60
2022-12-11T15:23:30.607Z,41.38
2022-12-11T15:25:59.091Z,34.03
2022-12-11T15:28:33.939Z,32.93
2022-12-11T15:31:21.993Z,39.10
2022-12-11T15:33:48.392Z,37.27
2022-12-11T15:36:25.505Z,39.20
2022-12-11T15:38:52.052Z,40.17
2022-12-11T15:41:19.891Z,38.17
2022-12-11T15:43:47.385Z,36.97
2022-12-11T15:46:13.824Z,38.97
2022-12-11T15:48:40.231Z,42.13
2022-12-11T15:51:06.570Z,35.43
2022-12-11T15:53:32.972Z,38.23
2022-12-11T15:55:59.661Z,32.77
2022-12-11T15:58:26.235Z,36.47
2022-12-11T16:00:53.388Z,34.10
2022-12-11T16:03:21.697Z,37.80
2022-12-11T16:05:49.845Z,31.30
2022-12-11T16:08:19.747Z,31.23
2022-12-11T16:10:47.355Z,35.75
2022-12-11T16:13:14.394Z,29.47
2022-12-11T16:15:43.813Z,34.83
2022-12-11T16:18:16.187Z,42.87
2022-12-11T16:20:45.226Z,43.47
2022-12-11T16:23:12.685Z,47.40
2022-12-11T16:25:41.081Z,47.10
2022-12-11T16:28:08.706Z,44.77
2022-12-11T16:30:36.593Z,41.60
2022-12-11T16:33:11.811Z,41.57
2022-12-11T16:35:39.157Z,38.37
2022-12-11T16:38:05.511Z,41.17
2022-12-11T16:40:31.864Z,43.70
2022-12-11T16:42:58.180Z,38.10
2022-12-11T16:45:25.955Z,42.10
2022-12-11T16:47:52.583Z,34.80
2022-12-11T16:50:19.127Z,38.60
2022-12-11T16:52:45.862Z,35.13
2022-12-11T16:55:13.300Z,38.50
2022-12-11T16:57:40.059Z,38.53
2022-12-11T17:00:08.458Z,36.50
2022-12-11T17:02:35.763Z,33.53
2022-12-11T17:05:02.201Z,40.23
2022-12-11T17:07:28.510Z,49.20
2022-12-11T17:09:55.002Z,43.20
2022-12-11T17:12:21.593Z,47.37
2022-12-11T17:14:47.959Z,42.47
2022-12-11T17:17:14.300Z,40.87
2022-12-11T17:19:40.625Z,38.27
2022-12-11T17:22:06.931Z,40.73
2022-12-11T17:24:33.327Z,40.27
2022-12-11T17:26:59.668Z,45.33
2022-12-11T17:29:26.073Z,40.63
2022-12-11T17:31:52.409Z,47.10
2022-12-11T17:34:18.754Z,43.13
2022-12-11T17:36:45.067Z,42.93
2022-12-11T17:39:11.332Z,46.13
2022-12-11T17:41:37.755Z,42.93
2022-12-11T17:44:04.277Z,40.53
2022-12-11T17:46:30.645Z,34.93
2022-12-11T17:48:57.077Z,46.10
2022-12-11T17:51:23.393Z,41.93
2022-12-11T17:53:50.873Z,42.73
2022-12-11T17:56:17.368Z,45.00
2022-12-11T17:58:43.730Z,40.33
2022-12-11T18:01:10.938Z,48.93
2022-12-11T18:03:37.557Z,45.07
2022-12-11T18:06:08.174Z,35.40
2022-12-11T18:08:34.896Z,42.58
2022-12-11T18:11:16.037Z,40.70
2022-12-11T18:13:43.730Z,44.03
2022-12-11T18:16:16.419Z,43.47
2022-12-11T18:18:43.537Z,47.90
2022-12-11T18:21:13.489Z,39.30
2022-12-11T18:23:39.920Z,44.53
2022-12-11T18:26:06.195Z,44.87
2022-12-11T18:28:32.565Z,51.07
2022-12-11T18:31:00.617Z,46.53
2022-12-11T18:33:27.736Z,49.90
2022-12-11T18:35:54.084Z,43.77
2022-12-11T18:38:20.452Z,46.37
2022-12-11T18:40:46.732Z,46.97
2022-12-11T18:43:13.087Z,48.43
2022-12-11T18:45:42.897Z,47.80
2022-12-11T18:48:09.262Z,49.97
2022-12-11T18:50:35.784Z,45.50
2022-12-11T18:53:02.188Z,49.83
2022-12-11T18:55:28.502Z,55.37
2022-12-11T18:57:54.806Z,54.90
2022-12-11T19:00:21.474Z,56.07
2022-12-11T19:02:51.032Z,52.07
2022-12-11T19:05:17.512Z,50.03
2022-12-11T19:07:43.918Z,52.07
2022-12-11T19:10:10.567Z,51.40
2022-12-11T19:12:36.984Z,54.80
2022-12-11T19:15:03.604Z,45.70
2022-12-11T19:17:29.961Z,48.67
2022-12-11T19:19:56.314Z,50.97
2022-12-11T19:22:23.769Z,46.07
2022-12-11T19:24:50.084Z,47.17
2022-12-11T19:27:16.380Z,44.23
2022-12-11T19:29:42.780Z,46.87
2022-12-11T19:32:09.211Z,45.17
2022-12-11T19:34:35.810Z,47.13
2022-12-11T19:37:02.098Z,49.03
2022-12-11T19:39:28.405Z,46.17
2022-12-11T19:41:54.757Z,45.10
2022-12-11T19:44:21.146Z,47.67
2022-12-11T19:46:47.603Z,47.13
2022-12-11T19:49:14.053Z,53.43
2022-12-11T19:51:41.734Z,51.77
2022-12-11T19:54:11.991Z,47.73
2022-12-11T19:56:38.512Z,52.60
2022-12-11T19:59:07.939Z,58.33
2022-12-11T20:01:37.156Z,56.07
2022-12-11T20:04:07.360Z,56.90
2022-12-11T20:06:36.993Z,59.13
2022-12-11T20:09:05.458Z,59.30
2022-12-11T20:11:33.214Z,56.03
2022-12-11T20:13:59.986Z,52.30
2022-12-11T20:16:46.383Z,47.53
2022-12-11T20:19:12.895Z,47.50
2022-12-11T20:21:39.211Z,48.73
2022-12-11T20:24:05.903Z,41.27
2022-12-11T20:26:32.249Z,47.23
2022-12-11T20:28:58.768Z,60.63
2022-12-11T20:31:25.994Z,58.30
2022-12-11T20:33:55.447Z,53.13
2022-12-11T20:36:23.415Z,52.97
2022-12-11T20:38:50.421Z,49.37
2022-12-11T20:41:19.463Z,45.13
2022-12-11T20:43:46.318Z,47.87
2022-12-11T20:46:14.294Z,48.10
2022-12-11T20:48:42.860Z,44.83
2022-12-11T20:51:11.209Z,43.57
2022-12-11T20:53:38.040Z,43.73
2022-12-11T20:56:16.185Z,40.63
2022-12-11T20:58:43.527Z,45.63
2022-12-11T21:01:32.804Z,41.77
2022-12-11T21:03:59.719Z,41.93
2022-12-11T21:06:34.896Z,44.07
2022-12-11T21:09:05.890Z,45.73
2022-12-11T21:11:32.392Z,41.73
2022-12-11T21:13:58.975Z,41.50
2022-12-11T21:16:25.381Z,49.43
2022-12-11T21:18:51.792Z,47.93
2022-12-11T21:21:18.351Z,43.23
2022-12-11T21:23:44.947Z,42.23
2022-12-11T21:26:12.239Z,49.30
2022-12-11T21:28:38.668Z,46.07
2022-12-11T21:31:08.943Z,44.40
2022-12-11T21:33:35.989Z,46.38
2022-12-11T21:36:05.461Z,47.50
2022-12-11T21:38:31.772Z,46.27
2022-12-11T21:40:58.165Z,45.53
2022-12-11T21:43:24.495Z,45.13
2022-12-11T21:46:06.773Z,37.87
2022-12-11T21:48:33.388Z,35.20
2022-12-11T21:51:34.101Z,39.70
2022-12-11T21:54:03.419Z,43.67
2022-12-11T21:56:29.820Z,38.30
2022-12-11T21:58:56.229Z,38.07
2022-12-11T22:01:26.865Z,41.37
2022-12-11T22:03:53.717Z,37.25
2022-12-11T22:06:21.323Z,40.17
2022-12-11T22:08:48.446Z,37.83
2022-12-11T22:11:18.292Z,34.47
2022-12-11T22:13:44.735Z,41.25
2022-12-11T22:16:11.236Z,38.80
2022-12-11T22:18:37.679Z,44.00
2022-12-11T22:21:04.192Z,44.30
2022-12-11T22:23:30.763Z,43.07
2022-12-11T22:25:57.416Z,46.63
2022-12-11T22:28:23.925Z,46.90
2022-12-11T22:30:50.644Z,47.37
2022-12-11T22:33:17.068Z,45.90
2022-12-11T22:35:43.362Z,51.10
2022-12-11T22:38:09.726Z,49.40
2022-12-11T22:40:40.352Z,48.03
2022-12-11T22:43:07.262Z,45.15
2022-12-11T22:45:38.517Z,48.47
2022-12-11T22:48:05.574Z,50.43
2022-12-11T22:50:31.930Z,51.47
2022-12-11T22:52:58.278Z,48.43
2022-12-11T22:55:24.607Z,49.23
2022-12-11T22:57:50.981Z,52.87
2022-12-11T23:00:17.656Z,52.67
2022-12-11T23:02:44.085Z,53.67
2022-12-11T23:05:11.615Z,49.87
2022-12-11T23:07:38.735Z,54.03
2022-12-11T23:10:07.674Z,46.33
2022-12-11T23:12:34.685Z,42.97
2022-12-11T23:15:00.978Z,44.70
2022-12-11T23:17:27.309Z,51.87
2022-12-11T23:19:53.708Z,51.43
2022-12-11T23:22:20.034Z,56.27
2022-12-11T23:24:47.367Z,54.20
2022-12-11T23:27:13.738Z,46.43
2022-12-11T23:29:40.045Z,46.07
2022-12-11T23:32:06.387Z,44.07
2022-12-11T23:34:32.745Z,44.67
2022-12-11T23:36:59.032Z,44.30
2022-12-11T23:39:25.394Z,38.00
2022-12-11T23:41:51.694Z,47.30
2022-12-11T23:44:18.034Z,43.60
2022-12-11T23:46:44.361Z,46.93
2022-12-11T23:49:10.894Z,44.70
2022-12-11T23:51:37.268Z,42.17
2022-12-11T23:54:03.690Z,47.70
2022-12-11T23:56:30.042Z,44.40
2022-12-11T23:58:57.495Z,43.33
